sensor_id;sensor_type;location;lat;lon;timestamp;P1;durP1;ratioP1;P2;durP2;ratioP2
20725;SDS011;10524;48.132;8.518;2023-07-31T00:00:06;5.63;;;3.40;;
20725;SDS011;10524;48.132;8.518;2023-07-31T00:02:33;5.35;;;3.60;;
20725;SDS011;10524;48.132;8.518;2023-07-31T00:04:59;4.85;;;3.28;;
20725;SDS011;10524;48.132;8.518;2023-07-31T00:07:26;6.03;;;3.10;;
20725;SDS011;10524;48.132;8.518;2023-07-31T00:09:51;8.43;;;3.65;;
20725;SDS011;10524;48.132;8.518;2023-07-31T00:12:18;5.38;;;3.15;;
20725;SDS011;10524;48.132;8.518;2023-07-31T00:14:44;6.88;;;3.00;;
20725;SDS011;10524;48.132;8.518;2023-07-31T00:17:11;3.83;;;3.10;;
20725;SDS011;10524;48.132;8.518;2023-07-31T00:19:36;5.18;;;3.53;;
20725;SDS011;10524;48.132;8.518;2023-07-31T00:22:02;6.20;;;3.67;;
20725;SDS011;10524;48.132;8.518;2023-07-31T00:24:28;5.60;;;3.55;;
20725;SDS011;10524;48.132;8.518;2023-07-31T00:26:54;7.72;;;3.83;;
20725;SDS011;10524;48.132;8.518;2023-07-31T00:29:19;5.57;;;3.38;;
20725;SDS011;10524;48.132;8.518;2023-07-31T00:31:45;8.48;;;4.20;;
20725;SDS011;10524;48.132;8.518;2023-07-31T00:34:11;6.90;;;3.95;;
20725;SDS011;10524;48.132;8.518;2023-07-31T00:36:36;8.88;;;3.75;;
20725;SDS011;10524;48.132;8.518;2023-07-31T00:39:02;5.68;;;3.70;;
20725;SDS011;10524;48.132;8.518;2023-07-31T00:41:27;7.97;;;3.85;;
20725;SDS011;10524;48.132;8.518;2023-07-31T00:43:53;6.18;;;4.05;;
20725;SDS011;10524;48.132;8.518;2023-07-31T00:46:19;6.63;;;3.90;;
20725;SDS011;10524;48.132;8.518;2023-07-31T00:48:45;7.88;;;3.80;;
20725;SDS011;10524;48.132;8.518;2023-07-31T00:51:11;4.50;;;3.67;;
20725;SDS011;10524;48.132;8.518;2023-07-31T00:53:36;6.78;;;3.92;;
20725;SDS011;10524;48.132;8.518;2023-07-31T00:56:03;5.55;;;3.95;;
20725;SDS011;10524;48.132;8.518;2023-07-31T00:58:29;5.32;;;3.53;;
20725;SDS011;10524;48.132;8.518;2023-07-31T01:00:55;4.50;;;3.33;;
20725;SDS011;10524;48.132;8.518;2023-07-31T01:03:20;7.25;;;3.40;;
20725;SDS011;10524;48.132;8.518;2023-07-31T01:05:56;6.68;;;3.70;;
20725;SDS011;10524;48.132;8.518;2023-07-31T01:08:44;7.80;;;3.80;;
20725;SDS011;10524;48.132;8.518;2023-07-31T01:11:30;8.13;;;4.00;;
20725;SDS011;10524;48.132;8.518;2023-07-31T01:13:59;6.63;;;3.70;;
20725;SDS011;10524;48.132;8.518;2023-07-31T01:16:26;6.20;;;3.58;;
20725;SDS011;10524;48.132;8.518;2023-07-31T01:18:51;6.03;;;3.85;;
20725;SDS011;10524;48.132;8.518;2023-07-31T01:26:55;4.28;;;3.33;;
20725;SDS011;10524;48.132;8.518;2023-07-31T01:29:25;5.07;;;3.80;;
20725;SDS011;10524;48.132;8.518;2023-07-31T01:32:01;6.85;;;3.65;;
20725;SDS011;10524;48.132;8.518;2023-07-31T01:34:28;5.60;;;3.70;;
20725;SDS011;10524;48.132;8.518;2023-07-31T01:36:58;7.93;;;3.95;;
20725;SDS011;10524;48.132;8.518;2023-07-31T01:39:23;6.78;;;4.05;;
20725;SDS011;10524;48.132;8.518;2023-07-31T01:41:49;5.68;;;4.10;;
20725;SDS011;10524;48.132;8.518;2023-07-31T01:44:16;11.35;;;4.03;;
20725;SDS011;10524;48.132;8.518;2023-07-31T01:46:42;7.50;;;4.40;;
20725;SDS011;10524;48.132;8.518;2023-07-31T01:49:07;6.53;;;3.75;;
20725;SDS011;10524;48.132;8.518;2023-07-31T01:51:33;4.75;;;3.95;;
20725;SDS011;10524;48.132;8.518;2023-07-31T01:54:01;5.93;;;3.78;;
20725;SDS011;10524;48.132;8.518;2023-07-31T01:56:27;4.78;;;3.45;;
20725;SDS011;10524;48.132;8.518;2023-07-31T01:58:53;6.65;;;3.92;;
20725;SDS011;10524;48.132;8.518;2023-07-31T02:01:19;6.53;;;3.70;;
20725;SDS011;10524;48.132;8.518;2023-07-31T02:03:45;5.85;;;3.58;;
20725;SDS011;10524;48.132;8.518;2023-07-31T02:06:10;6.75;;;4.60;;
20725;SDS011;10524;48.132;8.518;2023-07-31T02:08:36;6.78;;;4.60;;
20725;SDS011;10524;48.132;8.518;2023-07-31T02:11:01;6.65;;;4.68;;
20725;SDS011;10524;48.132;8.518;2023-07-31T02:13:28;5.75;;;4.07;;
20725;SDS011;10524;48.132;8.518;2023-07-31T02:15:53;6.97;;;4.13;;
20725;SDS011;10524;48.132;8.518;2023-07-31T02:18:19;6.05;;;3.85;;
20725;SDS011;10524;48.132;8.518;2023-07-31T02:20:48;6.80;;;4.30;;
20725;SDS011;10524;48.132;8.518;2023-07-31T02:23:15;6.95;;;3.90;;
20725;SDS011;10524;48.132;8.518;2023-07-31T02:25:42;6.53;;;4.05;;
20725;SDS011;10524;48.132;8.518;2023-07-31T02:28:07;7.43;;;4.50;;
20725;SDS011;10524;48.132;8.518;2023-07-31T02:30:33;8.82;;;4.40;;
20725;SDS011;10524;48.132;8.518;2023-07-31T02:32:59;6.28;;;4.15;;
20725;SDS011;10524;48.132;8.518;2023-07-31T02:35:24;8.50;;;4.30;;
20725;SDS011;10524;48.132;8.518;2023-07-31T02:37:50;9.80;;;5.10;;
20725;SDS011;10524;48.132;8.518;2023-07-31T02:40:15;5.32;;;4.82;;
20725;SDS011;10524;48.132;8.518;2023-07-31T02:42:41;7.53;;;4.82;;
20725;SDS011;10524;48.132;8.518;2023-07-31T02:45:07;6.72;;;4.68;;
20725;SDS011;10524;48.132;8.518;2023-07-31T02:47:33;7.72;;;4.88;;
20725;SDS011;10524;48.132;8.518;2023-07-31T02:49:59;9.88;;;4.90;;
20725;SDS011;10524;48.132;8.518;2023-07-31T02:52:25;8.18;;;5.25;;
20725;SDS011;10524;48.132;8.518;2023-07-31T02:54:50;7.65;;;4.53;;
20725;SDS011;10524;48.132;8.518;2023-07-31T02:57:16;7.00;;;4.47;;
20725;SDS011;10524;48.132;8.518;2023-07-31T02:59:42;5.75;;;3.90;;
20725;SDS011;10524;48.132;8.518;2023-07-31T03:02:07;5.75;;;3.83;;
20725;SDS011;10524;48.132;8.518;2023-07-31T03:04:33;8.55;;;3.97;;
20725;SDS011;10524;48.132;8.518;2023-07-31T03:06:59;10.20;;;4.20;;
20725;SDS011;10524;48.132;8.518;2023-07-31T03:09:24;6.32;;;4.10;;
20725;SDS011;10524;48.132;8.518;2023-07-31T03:11:50;5.50;;;4.00;;
20725;SDS011;10524;48.132;8.518;2023-07-31T03:14:15;6.38;;;4.63;;
20725;SDS011;10524;48.132;8.518;2023-07-31T03:16:41;8.10;;;5.03;;
20725;SDS011;10524;48.132;8.518;2023-07-31T03:19:06;7.82;;;4.15;;
20725;SDS011;10524;48.132;8.518;2023-07-31T03:21:32;6.32;;;4.55;;
20725;SDS011;10524;48.132;8.518;2023-07-31T03:23:58;7.82;;;4.68;;
20725;SDS011;10524;48.132;8.518;2023-07-31T03:26:23;7.35;;;4.63;;
20725;SDS011;10524;48.132;8.518;2023-07-31T03:28:49;9.07;;;5.30;;
20725;SDS011;10524;48.132;8.518;2023-07-31T03:31:14;7.90;;;5.13;;
20725;SDS011;10524;48.132;8.518;2023-07-31T03:33:41;9.63;;;4.97;;
20725;SDS011;10524;48.132;8.518;2023-07-31T03:36:07;6.30;;;4.47;;
20725;SDS011;10524;48.132;8.518;2023-07-31T03:38:33;7.88;;;4.40;;
20725;SDS011;10524;48.132;8.518;2023-07-31T03:40:59;7.88;;;4.55;;
20725;SDS011;10524;48.132;8.518;2023-07-31T03:43:25;6.72;;;4.85;;
20725;SDS011;10524;48.132;8.518;2023-07-31T03:45:51;6.78;;;5.10;;
20725;SDS011;10524;48.132;8.518;2023-07-31T03:48:16;6.75;;;4.63;;
20725;SDS011;10524;48.132;8.518;2023-07-31T03:50:42;6.13;;;4.60;;
20725;SDS011;10524;48.132;8.518;2023-07-31T03:53:08;10.27;;;6.55;;
20725;SDS011;10524;48.132;8.518;2023-07-31T03:55:33;8.85;;;6.50;;
20725;SDS011;10524;48.132;8.518;2023-07-31T03:57:59;9.60;;;6.30;;
20725;SDS011;10524;48.132;8.518;2023-07-31T04:00:27;8.77;;;6.75;;
20725;SDS011;10524;48.132;8.518;2023-07-31T04:02:53;12.88;;;7.07;;
20725;SDS011;10524;48.132;8.518;2023-07-31T04:05:19;12.23;;;7.53;;
20725;SDS011;10524;48.132;8.518;2023-07-31T04:07:44;8.07;;;5.90;;
20725;SDS011;10524;48.132;8.518;2023-07-31T04:10:10;6.05;;;5.20;;
20725;SDS011;10524;48.132;8.518;2023-07-31T04:12:36;8.68;;;5.35;;
20725;SDS011;10524;48.132;8.518;2023-07-31T04:15:01;6.40;;;5.03;;
20725;SDS011;10524;48.132;8.518;2023-07-31T04:17:27;6.57;;;5.28;;
20725;SDS011;10524;48.132;8.518;2023-07-31T04:19:53;8.13;;;5.43;;
20725;SDS011;10524;48.132;8.518;2023-07-31T04:22:18;8.35;;;5.28;;
20725;SDS011;10524;48.132;8.518;2023-07-31T04:24:44;7.20;;;4.93;;
20725;SDS011;10524;48.132;8.518;2023-07-31T04:27:09;5.45;;;4.57;;
20725;SDS011;10524;48.132;8.518;2023-07-31T04:29:35;6.05;;;4.20;;
20725;SDS011;10524;48.132;8.518;2023-07-31T04:32:01;6.65;;;4.05;;
20725;SDS011;10524;48.132;8.518;2023-07-31T04:34:26;4.30;;;3.53;;
20725;SDS011;10524;48.132;8.518;2023-07-31T04:36:52;5.43;;;3.75;;
20725;SDS011;10524;48.132;8.518;2023-07-31T04:39:18;6.25;;;4.10;;
20725;SDS011;10524;48.132;8.518;2023-07-31T04:41:43;6.28;;;4.40;;
20725;SDS011;10524;48.132;8.518;2023-07-31T04:44:09;5.72;;;3.83;;
20725;SDS011;10524;48.132;8.518;2023-07-31T04:46:36;5.90;;;3.90;;
20725;SDS011;10524;48.132;8.518;2023-07-31T04:49:02;5.30;;;3.67;;
20725;SDS011;10524;48.132;8.518;2023-07-31T04:51:28;5.85;;;3.67;;
20725;SDS011;10524;48.132;8.518;2023-07-31T04:53:53;7.07;;;3.70;;
20725;SDS011;10524;48.132;8.518;2023-07-31T04:56:19;4.68;;;3.15;;
20725;SDS011;10524;48.132;8.518;2023-07-31T04:58:45;6.25;;;3.20;;
20725;SDS011;10524;48.132;8.518;2023-07-31T05:01:10;6.00;;;3.17;;
20725;SDS011;10524;48.132;8.518;2023-07-31T05:03:36;4.85;;;2.97;;
20725;SDS011;10524;48.132;8.518;2023-07-31T05:06:01;5.45;;;3.10;;
20725;SDS011;10524;48.132;8.518;2023-07-31T05:08:27;5.10;;;2.95;;
20725;SDS011;10524;48.132;8.518;2023-07-31T05:10:53;3.97;;;2.75;;
20725;SDS011;10524;48.132;8.518;2023-07-31T05:13:18;5.50;;;2.80;;
20725;SDS011;10524;48.132;8.518;2023-07-31T05:15:44;3.38;;;2.85;;
20725;SDS011;10524;48.132;8.518;2023-07-31T05:18:10;5.68;;;2.70;;
20725;SDS011;10524;48.132;8.518;2023-07-31T05:20:36;5.32;;;2.60;;
20725;SDS011;10524;48.132;8.518;2023-07-31T05:23:01;4.15;;;2.53;;
20725;SDS011;10524;48.132;8.518;2023-07-31T05:25:27;5.90;;;2.90;;
20725;SDS011;10524;48.132;8.518;2023-07-31T05:27:53;4.78;;;2.70;;
20725;SDS011;10524;48.132;8.518;2023-07-31T05:30:18;3.88;;;2.50;;
20725;SDS011;10524;48.132;8.518;2023-07-31T05:32:44;6.03;;;2.92;;
20725;SDS011;10524;48.132;8.518;2023-07-31T05:35:09;6.93;;;3.13;;
20725;SDS011;10524;48.132;8.518;2023-07-31T05:37:35;5.63;;;3.10;;
20725;SDS011;10524;48.132;8.518;2023-07-31T05:40:01;5.90;;;2.95;;
20725;SDS011;10524;48.132;8.518;2023-07-31T05:42:27;4.32;;;2.92;;
20725;SDS011;10524;48.132;8.518;2023-07-31T05:44:52;6.32;;;2.83;;
20725;SDS011;10524;48.132;8.518;2023-07-31T05:47:18;8.23;;;2.75;;
20725;SDS011;10524;48.132;8.518;2023-07-31T05:49:43;5.55;;;2.42;;
20725;SDS011;10524;48.132;8.518;2023-07-31T05:52:09;5.30;;;2.58;;
20725;SDS011;10524;48.132;8.518;2023-07-31T05:54:35;4.22;;;2.20;;
20725;SDS011;10524;48.132;8.518;2023-07-31T05:57:00;4.00;;;2.00;;
20725;SDS011;10524;48.132;8.518;2023-07-31T05:59:26;5.70;;;2.38;;
20725;SDS011;10524;48.132;8.518;2023-07-31T06:01:52;3.70;;;1.90;;
20725;SDS011;10524;48.132;8.518;2023-07-31T06:04:18;5.32;;;2.03;;
20725;SDS011;10524;48.132;8.518;2023-07-31T06:06:45;4.22;;;2.40;;
20725;SDS011;10524;48.132;8.518;2023-07-31T06:09:10;4.68;;;2.38;;
20725;SDS011;10524;48.132;8.518;2023-07-31T06:11:36;5.28;;;2.22;;
20725;SDS011;10524;48.132;8.518;2023-07-31T06:14:02;3.67;;;2.13;;
20725;SDS011;10524;48.132;8.518;2023-07-31T06:16:28;5.28;;;1.90;;
20725;SDS011;10524;48.132;8.518;2023-07-31T06:18:53;4.65;;;2.30;;
20725;SDS011;10524;48.132;8.518;2023-07-31T06:21:19;5.25;;;1.92;;
20725;SDS011;10524;48.132;8.518;2023-07-31T06:23:44;4.82;;;2.20;;
20725;SDS011;10524;48.132;8.518;2023-07-31T06:26:10;5.72;;;2.15;;
20725;SDS011;10524;48.132;8.518;2023-07-31T06:28:36;4.35;;;1.88;;
20725;SDS011;10524;48.132;8.518;2023-07-31T06:31:01;4.57;;;2.15;;
20725;SDS011;10524;48.132;8.518;2023-07-31T06:33:27;4.78;;;2.20;;
20725;SDS011;10524;48.132;8.518;2023-07-31T06:35:53;4.40;;;2.00;;
20725;SDS011;10524;48.132;8.518;2023-07-31T06:38:21;5.63;;;2.30;;
20725;SDS011;10524;48.132;8.518;2023-07-31T06:40:48;6.50;;;2.10;;
20725;SDS011;10524;48.132;8.518;2023-07-31T06:43:14;4.38;;;2.00;;
20725;SDS011;10524;48.132;8.518;2023-07-31T06:45:39;3.95;;;2.10;;
20725;SDS011;10524;48.132;8.518;2023-07-31T06:48:05;4.30;;;1.90;;
20725;SDS011;10524;48.132;8.518;2023-07-31T06:50:31;5.75;;;1.92;;
20725;SDS011;10524;48.132;8.518;2023-07-31T06:52:57;5.72;;;1.63;;
20725;SDS011;10524;48.132;8.518;2023-07-31T06:55:22;3.92;;;1.63;;
20725;SDS011;10524;48.132;8.518;2023-07-31T06:57:49;4.07;;;1.63;;
20725;SDS011;10524;48.132;8.518;2023-07-31T07:00:16;3.63;;;1.80;;
20725;SDS011;10524;48.132;8.518;2023-07-31T07:02:43;3.45;;;1.90;;
20725;SDS011;10524;48.132;8.518;2023-07-31T07:05:09;4.28;;;1.90;;
20725;SDS011;10524;48.132;8.518;2023-07-31T07:07:35;4.60;;;1.90;;
20725;SDS011;10524;48.132;8.518;2023-07-31T07:10:01;3.42;;;1.70;;
20725;SDS011;10524;48.132;8.518;2023-07-31T07:12:29;3.60;;;1.75;;
20725;SDS011;10524;48.132;8.518;2023-07-31T07:14:56;3.53;;;1.83;;
20725;SDS011;10524;48.132;8.518;2023-07-31T07:17:25;3.20;;;1.88;;
20725;SDS011;10524;48.132;8.518;2023-07-31T07:19:51;4.30;;;1.60;;
20725;SDS011;10524;48.132;8.518;2023-07-31T07:22:17;4.70;;;2.25;;
20725;SDS011;10524;48.132;8.518;2023-07-31T07:24:43;5.60;;;2.08;;
20725;SDS011;10524;48.132;8.518;2023-07-31T07:27:09;4.43;;;2.00;;
20725;SDS011;10524;48.132;8.518;2023-07-31T07:29:35;4.25;;;1.98;;
20725;SDS011;10524;48.132;8.518;2023-07-31T07:32:01;5.60;;;2.15;;
20725;SDS011;10524;48.132;8.518;2023-07-31T07:34:27;6.78;;;2.40;;
20725;SDS011;10524;48.132;8.518;2023-07-31T07:36:53;4.13;;;1.80;;
20725;SDS011;10524;48.132;8.518;2023-07-31T07:39:20;5.05;;;1.98;;
20725;SDS011;10524;48.132;8.518;2023-07-31T07:41:45;6.68;;;2.17;;
20725;SDS011;10524;48.132;8.518;2023-07-31T07:44:11;5.65;;;1.90;;
20725;SDS011;10524;48.132;8.518;2023-07-31T07:46:38;5.95;;;1.70;;
20725;SDS011;10524;48.132;8.518;2023-07-31T07:49:04;3.20;;;1.70;;
20725;SDS011;10524;48.132;8.518;2023-07-31T07:51:30;4.22;;;1.90;;
20725;SDS011;10524;48.132;8.518;2023-07-31T07:53:56;6.10;;;2.10;;
20725;SDS011;10524;48.132;8.518;2023-07-31T07:56:23;5.43;;;2.05;;
20725;SDS011;10524;48.132;8.518;2023-07-31T07:58:49;6.03;;;2.10;;
20725;SDS011;10524;48.132;8.518;2023-07-31T08:01:15;5.30;;;1.92;;
20725;SDS011;10524;48.132;8.518;2023-07-31T08:03:41;3.42;;;1.90;;
20725;SDS011;10524;48.132;8.518;2023-07-31T08:06:07;5.85;;;1.95;;
20725;SDS011;10524;48.132;8.518;2023-07-31T08:08:34;3.05;;;1.58;;
20725;SDS011;10524;48.132;8.518;2023-07-31T08:11:02;3.35;;;1.70;;
20725;SDS011;10524;48.132;8.518;2023-07-31T08:13:28;3.90;;;1.50;;
20725;SDS011;10524;48.132;8.518;2023-07-31T08:15:54;3.92;;;1.73;;
20725;SDS011;10524;48.132;8.518;2023-07-31T08:18:20;3.88;;;1.92;;
20725;SDS011;10524;48.132;8.518;2023-07-31T08:20:46;2.88;;;1.60;;
20725;SDS011;10524;48.132;8.518;2023-07-31T08:23:12;3.67;;;1.45;;
20725;SDS011;10524;48.132;8.518;2023-07-31T08:25:38;4.45;;;1.42;;
20725;SDS011;10524;48.132;8.518;2023-07-31T08:28:04;3.63;;;1.70;;
20725;SDS011;10524;48.132;8.518;2023-07-31T08:30:31;3.00;;;1.65;;
20725;SDS011;10524;48.132;8.518;2023-07-31T08:32:58;4.53;;;1.85;;
20725;SDS011;10524;48.132;8.518;2023-07-31T08:35:24;4.25;;;1.50;;
20725;SDS011;10524;48.132;8.518;2023-07-31T08:37:50;3.08;;;1.70;;
20725;SDS011;10524;48.132;8.518;2023-07-31T08:40:16;3.05;;;1.63;;
20725;SDS011;10524;48.132;8.518;2023-07-31T08:42:46;3.53;;;1.67;;
20725;SDS011;10524;48.132;8.518;2023-07-31T08:45:16;4.75;;;2.00;;
20725;SDS011;10524;48.132;8.518;2023-07-31T08:47:47;3.75;;;1.63;;
20725;SDS011;10524;48.132;8.518;2023-07-31T08:50:17;4.07;;;1.50;;
20725;SDS011;10524;48.132;8.518;2023-07-31T08:52:44;4.07;;;1.70;;
20725;SDS011;10524;48.132;8.518;2023-07-31T08:55:14;4.18;;;1.80;;
20725;SDS011;10524;48.132;8.518;2023-07-31T08:57:40;3.13;;;1.63;;
20725;SDS011;10524;48.132;8.518;2023-07-31T09:00:08;4.90;;;1.80;;
20725;SDS011;10524;48.132;8.518;2023-07-31T09:02:38;3.58;;;1.77;;
20725;SDS011;10524;48.132;8.518;2023-07-31T09:05:15;3.05;;;1.52;;
20725;SDS011;10524;48.132;8.518;2023-07-31T09:07:42;3.78;;;1.77;;
20725;SDS011;10524;48.132;8.518;2023-07-31T09:10:11;3.90;;;1.80;;
20725;SDS011;10524;48.132;8.518;2023-07-31T09:12:37;3.10;;;1.48;;
20725;SDS011;10524;48.132;8.518;2023-07-31T09:15:03;3.60;;;1.60;;
20725;SDS011;10524;48.132;8.518;2023-07-31T09:17:35;5.15;;;1.58;;
20725;SDS011;10524;48.132;8.518;2023-07-31T09:20:14;3.70;;;1.83;;
20725;SDS011;10524;48.132;8.518;2023-07-31T09:22:44;4.70;;;1.67;;
20725;SDS011;10524;48.132;8.518;2023-07-31T09:25:14;3.88;;;1.90;;
20725;SDS011;10524;48.132;8.518;2023-07-31T09:27:47;3.90;;;1.88;;
20725;SDS011;10524;48.132;8.518;2023-07-31T09:30:18;3.67;;;1.80;;
20725;SDS011;10524;48.132;8.518;2023-07-31T09:32:45;3.90;;;1.80;;
20725;SDS011;10524;48.132;8.518;2023-07-31T09:35:27;4.25;;;1.85;;
20725;SDS011;10524;48.132;8.518;2023-07-31T09:37:58;4.30;;;1.70;;
20725;SDS011;10524;48.132;8.518;2023-07-31T09:40:32;3.33;;;1.85;;
20725;SDS011;10524;48.132;8.518;2023-07-31T09:43:26;4.20;;;1.88;;
20725;SDS011;10524;48.132;8.518;2023-07-31T09:45:54;3.65;;;1.70;;
20725;SDS011;10524;48.132;8.518;2023-07-31T09:48:22;3.47;;;2.00;;
20725;SDS011;10524;48.132;8.518;2023-07-31T09:50:51;4.72;;;1.70;;
20725;SDS011;10524;48.132;8.518;2023-07-31T09:53:18;3.13;;;1.48;;
20725;SDS011;10524;48.132;8.518;2023-07-31T09:55:43;2.85;;;1.67;;
20725;SDS011;10524;48.132;8.518;2023-07-31T09:58:10;3.08;;;1.80;;
20725;SDS011;10524;48.132;8.518;2023-07-31T10:00:37;4.30;;;2.78;;
20725;SDS011;10524;48.132;8.518;2023-07-31T10:03:10;3.88;;;2.00;;
20725;SDS011;10524;48.132;8.518;2023-07-31T10:08:11;2.85;;;1.50;;
20725;SDS011;10524;48.132;8.518;2023-07-31T10:10:41;3.60;;;1.60;;
20725;SDS011;10524;48.132;8.518;2023-07-31T10:13:07;2.03;;;1.48;;
20725;SDS011;10524;48.132;8.518;2023-07-31T10:15:34;4.47;;;1.67;;
20725;SDS011;10524;48.132;8.518;2023-07-31T10:18:00;4.28;;;1.70;;
20725;SDS011;10524;48.132;8.518;2023-07-31T10:20:27;3.35;;;2.20;;
20725;SDS011;10524;48.132;8.518;2023-07-31T10:22:57;2.92;;;1.45;;
20725;SDS011;10524;48.132;8.518;2023-07-31T10:25:24;3.92;;;1.80;;
20725;SDS011;10524;48.132;8.518;2023-07-31T10:27:51;3.47;;;1.58;;
20725;SDS011;10524;48.132;8.518;2023-07-31T10:30:19;2.78;;;1.25;;
20725;SDS011;10524;48.132;8.518;2023-07-31T10:32:47;3.50;;;2.00;;
20725;SDS011;10524;48.132;8.518;2023-07-31T10:35:15;3.08;;;1.48;;
20725;SDS011;10524;48.132;8.518;2023-07-31T10:37:42;3.92;;;1.33;;
20725;SDS011;10524;48.132;8.518;2023-07-31T10:40:18;2.22;;;1.35;;
20725;SDS011;10524;48.132;8.518;2023-07-31T10:42:47;3.58;;;1.48;;
20725;SDS011;10524;48.132;8.518;2023-07-31T10:47:57;2.38;;;1.50;;
20725;SDS011;10524;48.132;8.518;2023-07-31T10:50:28;2.35;;;1.50;;
20725;SDS011;10524;48.132;8.518;2023-07-31T10:52:55;3.22;;;1.30;;
20725;SDS011;10524;48.132;8.518;2023-07-31T10:55:29;2.53;;;1.40;;
20725;SDS011;10524;48.132;8.518;2023-07-31T10:57:57;2.80;;;1.33;;
20725;SDS011;10524;48.132;8.518;2023-07-31T11:00:37;3.17;;;1.33;;
20725;SDS011;10524;48.132;8.518;2023-07-31T11:03:05;3.05;;;1.67;;
20725;SDS011;10524;48.132;8.518;2023-07-31T11:08:11;3.70;;;2.00;;
20725;SDS011;10524;48.132;8.518;2023-07-31T11:10:38;4.50;;;2.03;;
20725;SDS011;10524;48.132;8.518;2023-07-31T11:13:04;3.05;;;1.60;;
20725;SDS011;10524;48.132;8.518;2023-07-31T11:15:30;4.68;;;1.63;;
20725;SDS011;10524;48.132;8.518;2023-07-31T11:17:56;2.60;;;1.80;;
20725;SDS011;10524;48.132;8.518;2023-07-31T11:20:24;2.28;;;1.70;;
20725;SDS011;10524;48.132;8.518;2023-07-31T11:22:49;4.00;;;2.20;;
20725;SDS011;10524;48.132;8.518;2023-07-31T11:25:15;3.20;;;2.13;;
20725;SDS011;10524;48.132;8.518;2023-07-31T11:27:42;5.93;;;1.92;;
20725;SDS011;10524;48.132;8.518;2023-07-31T11:30:09;3.95;;;2.17;;
20725;SDS011;10524;48.132;8.518;2023-07-31T11:32:37;3.05;;;1.98;;
20725;SDS011;10524;48.132;8.518;2023-07-31T11:35:03;4.35;;;2.47;;
20725;SDS011;10524;48.132;8.518;2023-07-31T11:37:43;3.60;;;1.80;;
20725;SDS011;10524;48.132;8.518;2023-07-31T11:40:10;3.13;;;2.10;;
20725;SDS011;10524;48.132;8.518;2023-07-31T11:42:36;3.10;;;2.00;;
20725;SDS011;10524;48.132;8.518;2023-07-31T11:45:08;3.22;;;2.00;;
20725;SDS011;10524;48.132;8.518;2023-07-31T11:47:37;2.58;;;1.83;;
20725;SDS011;10524;48.132;8.518;2023-07-31T11:50:04;3.33;;;2.10;;
20725;SDS011;10524;48.132;8.518;2023-07-31T11:52:32;3.30;;;2.05;;
20725;SDS011;10524;48.132;8.518;2023-07-31T11:55:02;3.08;;;2.42;;
20725;SDS011;10524;48.132;8.518;2023-07-31T11:57:28;3.33;;;2.30;;
20725;SDS011;10524;48.132;8.518;2023-07-31T11:59:55;3.97;;;2.65;;
20725;SDS011;10524;48.132;8.518;2023-07-31T12:02:22;2.80;;;2.35;;
20725;SDS011;10524;48.132;8.518;2023-07-31T12:04:48;4.18;;;2.20;;
20725;SDS011;10524;48.132;8.518;2023-07-31T12:07:14;3.72;;;1.98;;
20725;SDS011;10524;48.132;8.518;2023-07-31T12:09:50;4.18;;;2.10;;
20725;SDS011;10524;48.132;8.518;2023-07-31T12:12:21;3.83;;;2.20;;
20725;SDS011;10524;48.132;8.518;2023-07-31T12:14:48;6.60;;;2.67;;
20725;SDS011;10524;48.132;8.518;2023-07-31T12:17:15;4.57;;;2.40;;
20725;SDS011;10524;48.132;8.518;2023-07-31T12:19:42;2.42;;;2.10;;
20725;SDS011;10524;48.132;8.518;2023-07-31T12:22:11;4.55;;;2.50;;
20725;SDS011;10524;48.132;8.518;2023-07-31T12:24:39;3.63;;;2.35;;
20725;SDS011;10524;48.132;8.518;2023-07-31T12:27:09;4.43;;;2.30;;
20725;SDS011;10524;48.132;8.518;2023-07-31T12:29:41;3.65;;;2.30;;
20725;SDS011;10524;48.132;8.518;2023-07-31T12:32:23;2.53;;;2.08;;
20725;SDS011;10524;48.132;8.518;2023-07-31T12:37:15;3.67;;;2.50;;
20725;SDS011;10524;48.132;8.518;2023-07-31T12:39:41;3.72;;;2.50;;
20725;SDS011;10524;48.132;8.518;2023-07-31T12:42:07;5.25;;;2.78;;
20725;SDS011;10524;48.132;8.518;2023-07-31T12:44:33;4.00;;;2.70;;
20725;SDS011;10524;48.132;8.518;2023-07-31T12:46:58;4.40;;;2.88;;
20725;SDS011;10524;48.132;8.518;2023-07-31T12:49:24;3.50;;;2.60;;
20725;SDS011;10524;48.132;8.518;2023-07-31T12:51:49;4.30;;;2.60;;
20725;SDS011;10524;48.132;8.518;2023-07-31T12:54:15;6.15;;;2.78;;
20725;SDS011;10524;48.132;8.518;2023-07-31T12:56:41;4.10;;;2.67;;
20725;SDS011;10524;48.132;8.518;2023-07-31T12:59:06;3.80;;;2.47;;
20725;SDS011;10524;48.132;8.518;2023-07-31T13:01:32;3.97;;;2.60;;
20725;SDS011;10524;48.132;8.518;2023-07-31T13:03:58;3.97;;;2.80;;
20725;SDS011;10524;48.132;8.518;2023-07-31T13:06:24;4.32;;;2.92;;
20725;SDS011;10524;48.132;8.518;2023-07-31T13:08:50;5.05;;;2.58;;
20725;SDS011;10524;48.132;8.518;2023-07-31T13:11:16;3.58;;;2.35;;
20725;SDS011;10524;48.132;8.518;2023-07-31T13:13:42;3.35;;;2.63;;
20725;SDS011;10524;48.132;8.518;2023-07-31T13:16:07;4.05;;;2.67;;
20725;SDS011;10524;48.132;8.518;2023-07-31T13:18:33;3.33;;;2.38;;
20725;SDS011;10524;48.132;8.518;2023-07-31T13:20:59;3.25;;;2.47;;
20725;SDS011;10524;48.132;8.518;2023-07-31T13:23:24;3.67;;;2.53;;
20725;SDS011;10524;48.132;8.518;2023-07-31T13:25:50;3.78;;;2.45;;
20725;SDS011;10524;48.132;8.518;2023-07-31T13:28:15;3.72;;;2.30;;
20725;SDS011;10524;48.132;8.518;2023-07-31T13:30:41;3.88;;;2.72;;
20725;SDS011;10524;48.132;8.518;2023-07-31T13:33:07;4.88;;;2.80;;
20725;SDS011;10524;48.132;8.518;2023-07-31T13:35:32;5.25;;;2.30;;
20725;SDS011;10524;48.132;8.518;2023-07-31T13:37:58;3.10;;;2.30;;
20725;SDS011;10524;48.132;8.518;2023-07-31T13:40:24;3.20;;;2.40;;
20725;SDS011;10524;48.132;8.518;2023-07-31T13:42:49;2.97;;;2.33;;
20725;SDS011;10524;48.132;8.518;2023-07-31T13:45:15;4.05;;;2.33;;
20725;SDS011;10524;48.132;8.518;2023-07-31T13:47:41;3.08;;;2.30;;
20725;SDS011;10524;48.132;8.518;2023-07-31T13:50:06;2.75;;;2.20;;
20725;SDS011;10524;48.132;8.518;2023-07-31T13:52:32;2.80;;;2.30;;
20725;SDS011;10524;48.132;8.518;2023-07-31T13:54:58;3.97;;;2.53;;
20725;SDS011;10524;48.132;8.518;2023-07-31T13:57:23;3.22;;;2.40;;
20725;SDS011;10524;48.132;8.518;2023-07-31T13:59:49;3.53;;;2.20;;
20725;SDS011;10524;48.132;8.518;2023-07-31T14:02:15;4.40;;;2.28;;
20725;SDS011;10524;48.132;8.518;2023-07-31T14:04:40;2.47;;;2.10;;
20725;SDS011;10524;48.132;8.518;2023-07-31T14:07:06;5.13;;;2.30;;
20725;SDS011;10524;48.132;8.518;2023-07-31T14:09:32;2.97;;;2.22;;
20725;SDS011;10524;48.132;8.518;2023-07-31T14:11:58;6.75;;;2.20;;
20725;SDS011;10524;48.132;8.518;2023-07-31T14:14:23;3.70;;;2.38;;
20725;SDS011;10524;48.132;8.518;2023-07-31T14:16:49;3.88;;;2.70;;
20725;SDS011;10524;48.132;8.518;2023-07-31T14:19:15;3.03;;;2.20;;
20725;SDS011;10524;48.132;8.518;2023-07-31T14:21:40;3.75;;;2.10;;
20725;SDS011;10524;48.132;8.518;2023-07-31T14:24:06;3.17;;;2.10;;
20725;SDS011;10524;48.132;8.518;2023-07-31T14:26:31;3.85;;;2.50;;
20725;SDS011;10524;48.132;8.518;2023-07-31T14:28:57;3.53;;;2.30;;
20725;SDS011;10524;48.132;8.518;2023-07-31T14:31:23;4.32;;;2.35;;
20725;SDS011;10524;48.132;8.518;2023-07-31T14:33:48;3.03;;;2.28;;
20725;SDS011;10524;48.132;8.518;2023-07-31T14:36:14;3.50;;;2.30;;
20725;SDS011;10524;48.132;8.518;2023-07-31T14:38:40;4.47;;;2.20;;
20725;SDS011;10524;48.132;8.518;2023-07-31T14:41:06;3.20;;;2.40;;
20725;SDS011;10524;48.132;8.518;2023-07-31T14:43:31;3.10;;;2.38;;
20725;SDS011;10524;48.132;8.518;2023-07-31T14:45:57;3.65;;;2.05;;
20725;SDS011;10524;48.132;8.518;2023-07-31T14:48:27;2.90;;;2.38;;
20725;SDS011;10524;48.132;8.518;2023-07-31T14:50:54;2.85;;;2.47;;
20725;SDS011;10524;48.132;8.518;2023-07-31T14:53:20;3.35;;;2.50;;
20725;SDS011;10524;48.132;8.518;2023-07-31T14:55:46;4.50;;;2.45;;
20725;SDS011;10524;48.132;8.518;2023-07-31T14:58:12;4.40;;;2.33;;
20725;SDS011;10524;48.132;8.518;2023-07-31T15:00:39;3.33;;;2.20;;